OAS722 SKRG-PHNL
Flight info
| Callsign | OAS722 |
|---|---|
| Flight time | N/A |
| Altitude | 31997 |
| Route | NENES A323 IVROS/N0397F180 A323 TBG A502 DAV/N0489F320 DCT EBDEL DCT 16N105W DCT 17N10/N0488F340 DCT 19N20 DCT 20N25 DCT 21N30 DCT 21N40/N0477F360 DCT 21N41 DCT 21N42 DCT 21N50 DCT FAPIS R578 BYROW DCT PUMIC V21 LNY SHLAE1 |
| Aircraft | A346/H-SDE2E3FGHIJ3J4J5M1RWXY/LB1D1 |
Departure
| Time | 2026-05-09 04:39 |
|---|---|
| Airport | Jose Maria Córdova International Airport (SKRG) |
Arrival
| Time | N/A |
|---|---|
| Airport | Daniel K. Inouye International Airport (PHNL) |
| Time | Latitude | Longitude | Altitude | Speed | Heading |
|---|---|---|---|---|---|
| 2026-05-09 04:10 | 6.17335 | -75.42828 | 7024 ft | 0 kts | 196° |
| 2026-05-09 04:21 | 6.17373 | -75.42821 | 7023 ft | 4 kts | 180° |
| 2026-05-09 04:22 | 6.17397 | -75.42824 | 7024 ft | 4 kts | 159° |
| 2026-05-09 04:22 | 6.17415 | -75.42835 | 7025 ft | 4 kts | 126° |
| 2026-05-09 04:22 | 6.17422 | -75.42853 | 7024 ft | 4 kts | 103° |
| 2026-05-09 04:22 | 6.17428 | -75.42880 | 7025 ft | 4 kts | 103° |
| 2026-05-09 04:23 | 6.17434 | -75.42906 | 7025 ft | 4 kts | 103° |
| 2026-05-09 04:23 | 6.17436 | -75.42914 | 7024 ft | 0 kts | 103° |
| 2026-05-09 04:26 | 6.17435 | -75.42911 | 7025 ft | 2 kts | 103° |
| 2026-05-09 04:26 | 6.17427 | -75.42875 | 7024 ft | 8 kts | 103° |
| 2026-05-09 04:26 | 6.17408 | -75.42797 | 7026 ft | 15 kts | 103° |
| 2026-05-09 04:27 | 6.17362 | -75.42692 | 7025 ft | 14 kts | 106° |
| 2026-05-09 04:27 | 6.17401 | -75.42611 | 7027 ft | 15 kts | 41° |
| 2026-05-09 04:27 | 6.17491 | -75.42544 | 7029 ft | 18 kts | 34° |
| 2026-05-09 04:27 | 6.17613 | -75.42491 | 7029 ft | 21 kts | 9° |
| 2026-05-09 04:28 | 6.17772 | -75.42492 | 7032 ft | 24 kts | 359° |
| 2026-05-09 04:28 | 6.17900 | -75.42493 | 7034 ft | 15 kts | 359° |
| 2026-05-09 04:28 | 6.17989 | -75.42494 | 7036 ft | 8 kts | 17° |
| 2026-05-09 04:28 | 6.18018 | -75.42463 | 7039 ft | 4 kts | 65° |
| 2026-05-09 04:29 | 6.18018 | -75.42461 | 7039 ft | 0 kts | 73° |
| 2026-05-09 04:29 | 6.18020 | -75.42447 | 7036 ft | 4 kts | 84° |
| 2026-05-09 04:29 | 6.18021 | -75.42440 | 7036 ft | 0 kts | 84° |
| 2026-05-09 04:36 | 6.18023 | -75.42420 | 7037 ft | 7 kts | 85° |
| 2026-05-09 04:36 | 6.18025 | -75.42361 | 7037 ft | 1 kts | 102° |
| 2026-05-09 04:36 | 6.18022 | -75.42345 | 7037 ft | 4 kts | 101° |
| 2026-05-09 04:36 | 6.17996 | -75.42325 | 7038 ft | 8 kts | 170° |
| 2026-05-09 04:37 | 6.17975 | -75.42323 | 7036 ft | 0 kts | 179° |
| 2026-05-09 04:37 | 6.17974 | -75.42323 | 7036 ft | 0 kts | 179° |
| 2026-05-09 04:38 | 6.17910 | -75.42322 | 7038 ft | 35 kts | 179° |
| 2026-05-09 04:38 | 6.17444 | -75.42319 | 7031 ft | 97 kts | 180° |
| 2026-05-09 04:38 | 6.16571 | -75.42312 | 7010 ft | 152 kts | 180° |
| 2026-05-09 04:38 | 6.15348 | -75.42302 | 6984 ft | 195 kts | 179° |
| 2026-05-09 04:39 | 6.13509 | -75.42309 | 7670 ft | 195 kts | 180° |
| 2026-05-09 04:39 | 6.12602 | -75.42317 | 7920 ft | 193 kts | 179° |
| 2026-05-09 04:39 | 6.10795 | -75.42184 | 8171 ft | 202 kts | 166° |
| 2026-05-09 04:39 | 6.09434 | -75.41752 | 8352 ft | 208 kts | 154° |
| 2026-05-09 04:40 | 6.08171 | -75.41023 | 8582 ft | 211 kts | 142° |
| 2026-05-09 04:40 | 6.07410 | -75.40381 | 8776 ft | 211 kts | 133° |
| 2026-05-09 04:40 | 6.06488 | -75.39268 | 9079 ft | 210 kts | 122° |
| 2026-05-09 04:40 | 6.05797 | -75.37938 | 9355 ft | 210 kts | 109° |
| 2026-05-09 04:41 | 6.05418 | -75.36517 | 9598 ft | 211 kts | 98° |
| 2026-05-09 04:41 | 6.05345 | -75.35052 | 9807 ft | 217 kts | 86° |
| 2026-05-09 04:41 | 6.05602 | -75.33535 | 9950 ft | 224 kts | 74° |
| 2026-05-09 04:41 | 6.06210 | -75.32071 | 10117 ft | 230 kts | 61° |
| 2026-05-09 04:42 | 6.07161 | -75.30749 | 10372 ft | 234 kts | 50° |
| 2026-05-09 04:42 | 6.08270 | -75.29550 | 10730 ft | 234 kts | 47° |
| 2026-05-09 04:42 | 6.09407 | -75.28366 | 11033 ft | 236 kts | 47° |
| 2026-05-09 04:42 | 6.10558 | -75.27185 | 11323 ft | 238 kts | 41° |
| 2026-05-09 04:43 | 6.12015 | -75.26409 | 11563 ft | 242 kts | 13° |
| 2026-05-09 04:43 | 6.13723 | -75.26231 | 11756 ft | 251 kts | 4° |
| 2026-05-09 04:43 | 6.15500 | -75.26156 | 11928 ft | 261 kts | 4° |
| 2026-05-09 04:43 | 6.17347 | -75.26079 | 12086 ft | 271 kts | 4° |
| 2026-05-09 04:44 | 6.19270 | -75.25985 | 12273 ft | 282 kts | 4° |
| 2026-05-09 04:44 | 6.21267 | -75.25878 | 12461 ft | 292 kts | 4° |
| 2026-05-09 04:44 | 6.23333 | -75.25779 | 12653 ft | 303 kts | 359° |
| 2026-05-09 04:44 | 6.25403 | -75.26279 | 12821 ft | 313 kts | 330° |
| 2026-05-09 04:45 | 6.27059 | -75.27701 | 13222 ft | 316 kts | 309° |
| 2026-05-09 04:45 | 6.28406 | -75.29448 | 13691 ft | 317 kts | 308° |
| 2026-05-09 04:45 | 6.29754 | -75.31211 | 14080 ft | 319 kts | 309° |
| 2026-05-09 04:45 | 6.31132 | -75.32976 | 14408 ft | 321 kts | 309° |
| 2026-05-09 04:46 | 6.32400 | -75.34833 | 14742 ft | 324 kts | 298° |
| 2026-05-09 04:46 | 6.33273 | -75.36933 | 15084 ft | 326 kts | 286° |
| 2026-05-09 04:46 | 6.33833 | -75.39152 | 15447 ft | 328 kts | 283° |
| 2026-05-09 04:46 | 6.34336 | -75.41395 | 15782 ft | 329 kts | 283° |
| 2026-05-09 04:47 | 6.34840 | -75.43647 | 16117 ft | 331 kts | 283° |
| 2026-05-09 04:47 | 6.35359 | -75.45916 | 16343 ft | 333 kts | 283° |
| 2026-05-09 04:47 | 6.35887 | -75.48190 | 16670 ft | 335 kts | 283° |
| 2026-05-09 04:47 | 6.36423 | -75.50478 | 17013 ft | 336 kts | 284° |
| 2026-05-09 04:48 | 6.36956 | -75.52744 | 17344 ft | 338 kts | 284° |
| 2026-05-09 04:48 | 6.37503 | -75.55067 | 17571 ft | 344 kts | 283° |
| 2026-05-09 04:48 | 6.38067 | -75.57461 | 17874 ft | 348 kts | 283° |
| 2026-05-09 04:48 | 6.38619 | -75.59813 | 18121 ft | 354 kts | 283° |
| 2026-05-09 04:49 | 6.39190 | -75.62249 | 18268 ft | 361 kts | 283° |
| 2026-05-09 04:49 | 6.39781 | -75.64767 | 18414 ft | 369 kts | 283° |
| 2026-05-09 04:49 | 6.40371 | -75.67276 | 18544 ft | 377 kts | 283° |
| 2026-05-09 04:49 | 6.40981 | -75.69872 | 18673 ft | 385 kts | 283° |
| 2026-05-09 04:50 | 6.41608 | -75.72544 | 18799 ft | 393 kts | 283° |
| 2026-05-09 04:50 | 6.42242 | -75.75246 | 18916 ft | 401 kts | 283° |
| 2026-05-09 04:50 | 6.42889 | -75.78005 | 19032 ft | 408 kts | 283° |
| 2026-05-09 04:50 | 6.43547 | -75.80807 | 19143 ft | 416 kts | 283° |
| 2026-05-09 04:51 | 6.44217 | -75.83665 | 19253 ft | 423 kts | 283° |
| 2026-05-09 04:51 | 6.44899 | -75.86574 | 19360 ft | 430 kts | 283° |
| 2026-05-09 04:51 | 6.45590 | -75.89522 | 19478 ft | 437 kts | 283° |
| 2026-05-09 04:51 | 6.46292 | -75.92518 | 19617 ft | 442 kts | 283° |
| 2026-05-09 04:52 | 6.47002 | -75.95547 | 19855 ft | 445 kts | 283° |
| 2026-05-09 04:52 | 6.47714 | -75.98586 | 20158 ft | 447 kts | 283° |
| 2026-05-09 04:52 | 6.48428 | -76.01635 | 20441 ft | 448 kts | 283° |
| 2026-05-09 04:52 | 6.49146 | -76.04699 | 20710 ft | 451 kts | 283° |
| 2026-05-09 04:53 | 6.49866 | -76.07769 | 20972 ft | 452 kts | 284° |
| 2026-05-09 04:53 | 6.50593 | -76.10868 | 21227 ft | 455 kts | 284° |
| 2026-05-09 04:53 | 6.51318 | -76.13967 | 21486 ft | 456 kts | 284° |
| 2026-05-09 04:53 | 6.52049 | -76.17087 | 21729 ft | 459 kts | 284° |
| 2026-05-09 04:54 | 6.52888 | -76.20195 | 21968 ft | 460 kts | 289° |
| 2026-05-09 04:54 | 6.54086 | -76.23179 | 22219 ft | 461 kts | 297° |
| 2026-05-09 04:54 | 6.55649 | -76.26006 | 22438 ft | 462 kts | 304° |
| 2026-05-09 04:54 | 6.57443 | -76.28695 | 22674 ft | 464 kts | 306° |
| 2026-05-09 04:55 | 6.59284 | -76.31364 | 22904 ft | 465 kts | 306° |
| 2026-05-09 04:55 | 6.61144 | -76.34049 | 23136 ft | 467 kts | 306° |
| 2026-05-09 04:55 | 6.63000 | -76.36740 | 23355 ft | 469 kts | 306° |
| 2026-05-09 04:55 | 6.64864 | -76.39453 | 23559 ft | 471 kts | 306° |
| 2026-05-09 04:56 | 6.66729 | -76.42175 | 23755 ft | 473 kts | 306° |
| 2026-05-09 04:56 | 6.68596 | -76.44907 | 23929 ft | 474 kts | 306° |
| 2026-05-09 04:56 | 6.70466 | -76.47648 | 24140 ft | 475 kts | 306° |
| 2026-05-09 04:56 | 6.72340 | -76.50394 | 24339 ft | 476 kts | 306° |
| 2026-05-09 04:57 | 6.74218 | -76.53148 | 24536 ft | 478 kts | 306° |
| 2026-05-09 04:57 | 6.76101 | -76.55909 | 24728 ft | 479 kts | 306° |
| 2026-05-09 04:57 | 6.77992 | -76.58683 | 24914 ft | 480 kts | 306° |
| 2026-05-09 04:57 | 6.79886 | -76.61461 | 25108 ft | 482 kts | 306° |
| 2026-05-09 04:58 | 6.81782 | -76.64242 | 25319 ft | 483 kts | 306° |
| 2026-05-09 04:58 | 6.83686 | -76.67036 | 25509 ft | 484 kts | 306° |
| 2026-05-09 04:58 | 6.85596 | -76.69832 | 25693 ft | 485 kts | 306° |
| 2026-05-09 04:58 | 6.87524 | -76.72630 | 25891 ft | 486 kts | 306° |
| 2026-05-09 04:59 | 6.89462 | -76.75435 | 26072 ft | 488 kts | 306° |
| 2026-05-09 04:59 | 6.91399 | -76.78239 | 26281 ft | 489 kts | 306° |
| 2026-05-09 04:59 | 6.93343 | -76.81054 | 26466 ft | 490 kts | 306° |
| 2026-05-09 04:59 | 6.95265 | -76.83838 | 26648 ft | 491 kts | 306° |
| 2026-05-09 05:00 | 6.97246 | -76.86709 | 26840 ft | 492 kts | 306° |
| 2026-05-09 05:00 | 6.99202 | -76.89547 | 27024 ft | 494 kts | 306° |
| 2026-05-09 05:00 | 7.01164 | -76.92393 | 27227 ft | 494 kts | 306° |
| 2026-05-09 05:00 | 7.03123 | -76.95234 | 27481 ft | 494 kts | 306° |
| 2026-05-09 05:01 | 7.05054 | -76.98037 | 27769 ft | 493 kts | 306° |
| 2026-05-09 05:01 | 7.07009 | -77.00873 | 28045 ft | 492 kts | 306° |
| 2026-05-09 05:01 | 7.08957 | -77.03702 | 28314 ft | 491 kts | 306° |
| 2026-05-09 05:01 | 7.10900 | -77.06525 | 28580 ft | 490 kts | 306° |
| 2026-05-09 05:02 | 7.12845 | -77.09352 | 28824 ft | 490 kts | 305° |
| 2026-05-09 05:02 | 7.14786 | -77.12172 | 29074 ft | 489 kts | 305° |
| 2026-05-09 05:02 | 7.16719 | -77.14981 | 29332 ft | 489 kts | 305° |
| 2026-05-09 05:02 | 7.18658 | -77.17797 | 29580 ft | 488 kts | 305° |
| 2026-05-09 05:03 | 7.20593 | -77.20609 | 29819 ft | 488 kts | 305° |
| 2026-05-09 05:03 | 7.22525 | -77.23418 | 30042 ft | 487 kts | 305° |
| 2026-05-09 05:03 | 7.24458 | -77.26227 | 30212 ft | 487 kts | 305° |
| 2026-05-09 05:03 | 7.26392 | -77.29039 | 30376 ft | 488 kts | 305° |
| 2026-05-09 05:04 | 7.28327 | -77.31853 | 30518 ft | 489 kts | 305° |
| 2026-05-09 05:04 | 7.30267 | -77.34675 | 30679 ft | 489 kts | 305° |
| 2026-05-09 05:04 | 7.32206 | -77.37495 | 30831 ft | 490 kts | 305° |
| 2026-05-09 05:04 | 7.34148 | -77.40322 | 30983 ft | 491 kts | 305° |
| 2026-05-09 05:05 | 7.36097 | -77.43158 | 31146 ft | 491 kts | 305° |
| 2026-05-09 05:05 | 7.38042 | -77.45989 | 31297 ft | 492 kts | 305° |
| 2026-05-09 05:05 | 7.39993 | -77.48829 | 31442 ft | 492 kts | 305° |
| 2026-05-09 05:05 | 7.41944 | -77.51670 | 31594 ft | 493 kts | 305° |
| 2026-05-09 05:06 | 7.43899 | -77.54516 | 31760 ft | 493 kts | 305° |
| 2026-05-09 05:06 | 7.45855 | -77.57364 | 31876 ft | 494 kts | 305° |
| 2026-05-09 05:06 | 7.47811 | -77.60213 | 31883 ft | 494 kts | 305° |
| 2026-05-09 05:07 | 7.51729 | -77.65923 | 31901 ft | 495 kts | 305° |
| 2026-05-09 05:07 | 7.55643 | -77.71628 | 31892 ft | 495 kts | 305° |
| 2026-05-09 05:08 | 7.59522 | -77.77367 | 31905 ft | 495 kts | 304° |
| 2026-05-09 05:08 | 7.63352 | -77.83141 | 31903 ft | 495 kts | 304° |
| 2026-05-09 05:09 | 7.67183 | -77.88913 | 31889 ft | 495 kts | 304° |
| 2026-05-09 05:09 | 7.70997 | -77.94652 | 31904 ft | 495 kts | 304° |
| 2026-05-09 05:10 | 7.74833 | -78.00422 | 31884 ft | 495 kts | 304° |
| 2026-05-09 05:10 | 7.78675 | -78.06205 | 31899 ft | 495 kts | 304° |
| 2026-05-09 05:11 | 7.82516 | -78.11986 | 31882 ft | 496 kts | 304° |
| 2026-05-09 05:11 | 7.86360 | -78.17773 | 31894 ft | 496 kts | 304° |
| 2026-05-09 05:12 | 7.90207 | -78.23568 | 31876 ft | 496 kts | 304° |
| 2026-05-09 05:12 | 7.94053 | -78.29362 | 31880 ft | 497 kts | 304° |
| 2026-05-09 05:13 | 7.97897 | -78.35156 | 31869 ft | 497 kts | 304° |
| 2026-05-09 05:13 | 8.01746 | -78.40959 | 31882 ft | 497 kts | 304° |
| 2026-05-09 05:14 | 8.05595 | -78.46767 | 31867 ft | 497 kts | 304° |
| 2026-05-09 05:14 | 8.09450 | -78.52585 | 31866 ft | 497 kts | 304° |
| 2026-05-09 05:15 | 8.13269 | -78.58350 | 31867 ft | 497 kts | 304° |
| 2026-05-09 05:15 | 8.17151 | -78.64154 | 31880 ft | 497 kts | 305° |
| 2026-05-09 05:16 | 8.21039 | -78.69940 | 31888 ft | 496 kts | 305° |
| 2026-05-09 05:16 | 8.24874 | -78.75654 | 31868 ft | 493 kts | 305° |
| 2026-05-09 05:17 | 8.28730 | -78.81401 | 31868 ft | 492 kts | 305° |
| 2026-05-09 05:17 | 8.32576 | -78.87139 | 31862 ft | 492 kts | 305° |
| 2026-05-09 05:18 | 8.36398 | -78.92843 | 31859 ft | 492 kts | 305° |
| 2026-05-09 05:18 | 8.40248 | -78.98593 | 31860 ft | 492 kts | 305° |
| 2026-05-09 05:19 | 8.44098 | -79.04343 | 31853 ft | 492 kts | 305° |
| 2026-05-09 05:19 | 8.47918 | -79.10051 | 31854 ft | 492 kts | 305° |
| 2026-05-09 05:20 | 8.51764 | -79.15796 | 31850 ft | 492 kts | 305° |
| 2026-05-09 05:20 | 8.55581 | -79.21503 | 31850 ft | 492 kts | 305° |
| 2026-05-09 05:21 | 8.59425 | -79.27252 | 31845 ft | 492 kts | 305° |
| 2026-05-09 05:21 | 8.63271 | -79.33005 | 31847 ft | 492 kts | 305° |
| 2026-05-09 05:22 | 8.67086 | -79.38719 | 31848 ft | 492 kts | 305° |
| 2026-05-09 05:22 | 8.70951 | -79.44509 | 31844 ft | 492 kts | 305° |
| 2026-05-09 05:23 | 8.74470 | -79.50457 | 31846 ft | 493 kts | 295° |
| 2026-05-09 05:23 | 8.76671 | -79.57039 | 31842 ft | 495 kts | 282° |
| 2026-05-09 05:24 | 8.77382 | -79.63931 | 31848 ft | 496 kts | 270° |
| 2026-05-09 05:24 | 8.76694 | -79.70881 | 31848 ft | 496 kts | 262° |
| 2026-05-09 05:25 | 8.75638 | -79.77791 | 31856 ft | 496 kts | 262° |
| 2026-05-09 05:25 | 8.74096 | -79.88125 | 31870 ft | 496 kts | 262° |
| 2026-05-09 05:26 | 8.73055 | -79.95049 | 31870 ft | 496 kts | 262° |
| 2026-05-09 05:26 | 8.72018 | -80.01957 | 31877 ft | 496 kts | 262° |
| 2026-05-09 05:27 | 8.71022 | -80.08876 | 31882 ft | 496 kts | 263° |
| 2026-05-09 05:27 | 8.70256 | -80.14638 | 31883 ft | 496 kts | 263° |
| 2026-05-09 05:28 | 8.69183 | -80.22693 | 31886 ft | 496 kts | 263° |
| 2026-05-09 05:28 | 8.68403 | -80.28496 | 31880 ft | 496 kts | 262° |
| 2026-05-09 05:29 | 8.67474 | -80.35378 | 31891 ft | 496 kts | 262° |
| 2026-05-09 05:29 | 8.66539 | -80.42294 | 31893 ft | 495 kts | 262° |
| 2026-05-09 05:30 | 8.65602 | -80.49212 | 31899 ft | 495 kts | 262° |
| 2026-05-09 05:30 | 8.64669 | -80.56091 | 31903 ft | 495 kts | 262° |
| 2026-05-09 05:31 | 8.63730 | -80.63002 | 31903 ft | 495 kts | 262° |
| 2026-05-09 05:31 | 8.62791 | -80.69901 | 31908 ft | 494 kts | 262° |
| 2026-05-09 05:32 | 8.61857 | -80.76759 | 31912 ft | 494 kts | 262° |
| 2026-05-09 05:32 | 8.60917 | -80.83655 | 31915 ft | 494 kts | 262° |
| 2026-05-09 05:33 | 8.59975 | -80.90552 | 31919 ft | 494 kts | 262° |
| 2026-05-09 05:33 | 8.59038 | -80.97395 | 31920 ft | 494 kts | 262° |
| 2026-05-09 05:34 | 8.58093 | -81.04289 | 31919 ft | 493 kts | 262° |
| 2026-05-09 05:34 | 8.57148 | -81.11177 | 31923 ft | 493 kts | 262° |
| 2026-05-09 05:35 | 8.56201 | -81.18054 | 31924 ft | 493 kts | 262° |
| 2026-05-09 05:35 | 8.55259 | -81.24907 | 31920 ft | 493 kts | 262° |
| 2026-05-09 05:36 | 8.54309 | -81.31795 | 31925 ft | 493 kts | 262° |
| 2026-05-09 05:36 | 8.53359 | -81.38685 | 31928 ft | 493 kts | 262° |
| 2026-05-09 05:37 | 8.52409 | -81.45559 | 31931 ft | 493 kts | 262° |
| 2026-05-09 05:37 | 8.51462 | -81.52408 | 31930 ft | 493 kts | 262° |
| 2026-05-09 05:38 | 8.50509 | -81.59284 | 31936 ft | 493 kts | 262° |
| 2026-05-09 05:38 | 8.49554 | -81.66166 | 31932 ft | 493 kts | 262° |
| 2026-05-09 05:39 | 8.48600 | -81.73039 | 31931 ft | 494 kts | 262° |
| 2026-05-09 05:39 | 8.47640 | -81.79943 | 31929 ft | 494 kts | 262° |
| 2026-05-09 05:40 | 8.46681 | -81.86831 | 31925 ft | 494 kts | 262° |
| 2026-05-09 05:40 | 8.45725 | -81.93687 | 31917 ft | 495 kts | 262° |
| 2026-05-09 05:41 | 8.44752 | -82.00606 | 31913 ft | 495 kts | 262° |
| 2026-05-09 05:41 | 8.43778 | -82.07498 | 31904 ft | 495 kts | 262° |
| 2026-05-09 05:42 | 8.42809 | -82.14354 | 31895 ft | 494 kts | 262° |
| 2026-05-09 05:42 | 8.41835 | -82.21240 | 31887 ft | 494 kts | 262° |
| 2026-05-09 05:43 | 8.40849 | -82.28135 | 31875 ft | 494 kts | 262° |
| 2026-05-09 05:43 | 8.39930 | -82.35020 | 31871 ft | 494 kts | 265° |
| 2026-05-09 05:44 | 8.39734 | -82.41908 | 31884 ft | 493 kts | 272° |
| 2026-05-09 05:44 | 8.40426 | -82.48826 | 31883 ft | 493 kts | 280° |
| 2026-05-09 05:45 | 8.41986 | -82.55580 | 31880 ft | 493 kts | 287° |
| 2026-05-09 05:45 | 8.43939 | -82.62245 | 31887 ft | 493 kts | 287° |
| 2026-05-09 05:46 | 8.45889 | -82.68862 | 31885 ft | 493 kts | 287° |
| 2026-05-09 05:46 | 8.47841 | -82.75523 | 31888 ft | 494 kts | 287° |
| 2026-05-09 05:47 | 8.49789 | -82.82196 | 31889 ft | 494 kts | 287° |
| 2026-05-09 05:47 | 8.51734 | -82.88866 | 31884 ft | 494 kts | 287° |
| 2026-05-09 05:48 | 8.53665 | -82.95496 | 31887 ft | 494 kts | 287° |
| 2026-05-09 05:48 | 8.55607 | -83.02171 | 31885 ft | 494 kts | 287° |
| 2026-05-09 05:49 | 8.57551 | -83.08855 | 31884 ft | 494 kts | 287° |
| 2026-05-09 05:49 | 8.59492 | -83.15536 | 31878 ft | 494 kts | 287° |
| 2026-05-09 05:50 | 8.61420 | -83.22174 | 31878 ft | 494 kts | 287° |
| 2026-05-09 05:50 | 8.63356 | -83.28847 | 31875 ft | 494 kts | 287° |
| 2026-05-09 05:51 | 8.65297 | -83.35539 | 31877 ft | 494 kts | 287° |
| 2026-05-09 05:51 | 8.67229 | -83.42208 | 31871 ft | 494 kts | 287° |
| 2026-05-09 05:52 | 8.69154 | -83.48853 | 31866 ft | 494 kts | 287° |
| 2026-05-09 05:52 | 8.71087 | -83.55534 | 31867 ft | 494 kts | 287° |
| 2026-05-09 05:53 | 8.73023 | -83.62230 | 31865 ft | 494 kts | 287° |
| 2026-05-09 05:53 | 8.74940 | -83.68866 | 31864 ft | 494 kts | 287° |
| 2026-05-09 05:54 | 8.76875 | -83.75566 | 31861 ft | 494 kts | 287° |
| 2026-05-09 05:54 | 8.78805 | -83.82253 | 31862 ft | 494 kts | 287° |
| 2026-05-09 05:55 | 8.80720 | -83.88895 | 31862 ft | 494 kts | 287° |
| 2026-05-09 05:55 | 8.82650 | -83.95589 | 31860 ft | 494 kts | 287° |
| 2026-05-09 05:56 | 8.84575 | -84.02275 | 31858 ft | 494 kts | 287° |
| 2026-05-09 05:56 | 8.86496 | -84.08950 | 31858 ft | 494 kts | 287° |
| 2026-05-09 05:57 | 8.88407 | -84.15594 | 31857 ft | 494 kts | 287° |
| 2026-05-09 05:57 | 8.90329 | -84.22284 | 31861 ft | 494 kts | 287° |
| 2026-05-09 05:58 | 8.92250 | -84.28973 | 31859 ft | 493 kts | 287° |
| 2026-05-09 05:58 | 8.94168 | -84.35659 | 31857 ft | 493 kts | 287° |
| 2026-05-09 05:59 | 8.96072 | -84.42300 | 31857 ft | 493 kts | 287° |
| 2026-05-09 05:59 | 8.97988 | -84.48990 | 31857 ft | 493 kts | 287° |
| 2026-05-09 06:00 | 8.99900 | -84.55667 | 31858 ft | 493 kts | 287° |
| 2026-05-09 06:00 | 9.01804 | -84.62322 | 31858 ft | 493 kts | 287° |
| 2026-05-09 06:01 | 9.03714 | -84.69006 | 31853 ft | 493 kts | 287° |
| 2026-05-09 06:01 | 9.05625 | -84.75697 | 31856 ft | 493 kts | 287° |
| 2026-05-09 06:02 | 9.07535 | -84.82393 | 31861 ft | 493 kts | 287° |
| 2026-05-09 06:02 | 9.09429 | -84.89034 | 31861 ft | 493 kts | 286° |
| 2026-05-09 06:03 | 9.11333 | -84.95715 | 31851 ft | 493 kts | 286° |
| 2026-05-09 06:03 | 9.13238 | -85.02405 | 31856 ft | 493 kts | 286° |
| 2026-05-09 06:04 | 9.15139 | -85.09084 | 31858 ft | 493 kts | 286° |
| 2026-05-09 06:04 | 9.17037 | -85.15758 | 31859 ft | 493 kts | 286° |
| 2026-05-09 06:05 | 9.18935 | -85.22440 | 31859 ft | 493 kts | 286° |
| 2026-05-09 06:05 | 9.20832 | -85.29120 | 31859 ft | 492 kts | 286° |
| 2026-05-09 06:06 | 9.22718 | -85.35770 | 31861 ft | 492 kts | 286° |
| 2026-05-09 06:06 | 9.24610 | -85.42442 | 31860 ft | 492 kts | 286° |
| 2026-05-09 06:07 | 9.26503 | -85.49122 | 31862 ft | 492 kts | 286° |
| 2026-05-09 06:07 | 9.28380 | -85.55755 | 31865 ft | 492 kts | 286° |
| 2026-05-09 06:08 | 9.30272 | -85.62443 | 31860 ft | 492 kts | 286° |
| 2026-05-09 06:08 | 9.32163 | -85.69134 | 31861 ft | 492 kts | 286° |
| 2026-05-09 06:09 | 9.34038 | -85.75774 | 31860 ft | 492 kts | 286° |
| 2026-05-09 06:09 | 9.35929 | -85.82473 | 31863 ft | 493 kts | 286° |
| 2026-05-09 06:10 | 9.37813 | -85.89152 | 31861 ft | 493 kts | 286° |
| 2026-05-09 06:10 | 9.39701 | -85.95852 | 31860 ft | 493 kts | 286° |
| 2026-05-09 06:11 | 9.41575 | -86.02508 | 31862 ft | 492 kts | 286° |
| 2026-05-09 06:11 | 9.43454 | -86.09190 | 31860 ft | 493 kts | 286° |
| 2026-05-09 06:12 | 9.45329 | -86.15858 | 31862 ft | 493 kts | 286° |
| 2026-05-09 06:12 | 9.47207 | -86.22547 | 31861 ft | 493 kts | 286° |
| 2026-05-09 06:13 | 9.49087 | -86.29241 | 31862 ft | 493 kts | 286° |
| 2026-05-09 06:13 | 9.50954 | -86.35899 | 31862 ft | 493 kts | 286° |
| 2026-05-09 06:14 | 9.52833 | -86.42605 | 31861 ft | 493 kts | 286° |
| 2026-05-09 06:14 | 9.54709 | -86.49305 | 31861 ft | 493 kts | 286° |
| 2026-05-09 06:15 | 9.56574 | -86.55969 | 31864 ft | 493 kts | 286° |
| 2026-05-09 06:15 | 9.58445 | -86.62664 | 31862 ft | 493 kts | 286° |
| 2026-05-09 06:16 | 9.60319 | -86.69371 | 31862 ft | 493 kts | 286° |
| 2026-05-09 06:16 | 9.61872 | -86.74935 | 31861 ft | 493 kts | 286° |
| 2026-05-09 06:17 | 9.63747 | -86.81654 | 31855 ft | 493 kts | 286° |
| 2026-05-09 06:17 | 9.65607 | -86.88328 | 31854 ft | 493 kts | 286° |
| 2026-05-09 06:18 | 9.67476 | -86.95040 | 31852 ft | 493 kts | 286° |
| 2026-05-09 06:18 | 9.69344 | -87.01752 | 31859 ft | 493 kts | 286° |
| 2026-05-09 06:19 | 9.71203 | -87.08439 | 31860 ft | 493 kts | 286° |
| 2026-05-09 06:19 | 9.73069 | -87.15154 | 31856 ft | 493 kts | 286° |
| 2026-05-09 06:20 | 9.74931 | -87.21863 | 31860 ft | 494 kts | 286° |
| 2026-05-09 06:20 | 9.76797 | -87.28589 | 31858 ft | 494 kts | 286° |
| 2026-05-09 06:21 | 9.78645 | -87.35259 | 31855 ft | 494 kts | 286° |
| 2026-05-09 06:21 | 9.80508 | -87.41985 | 31858 ft | 494 kts | 286° |
| 2026-05-09 06:22 | 9.82368 | -87.48709 | 31857 ft | 494 kts | 285° |
| 2026-05-09 06:22 | 9.84218 | -87.55401 | 31859 ft | 494 kts | 285° |
| 2026-05-09 06:23 | 9.86078 | -87.62133 | 31860 ft | 494 kts | 285° |
| 2026-05-09 06:23 | 9.87936 | -87.68863 | 31853 ft | 494 kts | 285° |
| 2026-05-09 06:24 | 9.89793 | -87.75595 | 31855 ft | 495 kts | 285° |
| 2026-05-09 06:24 | 9.91640 | -87.82298 | 31855 ft | 495 kts | 285° |
| 2026-05-09 06:25 | 9.93495 | -87.89034 | 31858 ft | 495 kts | 285° |
| 2026-05-09 06:25 | 9.95351 | -87.95781 | 31852 ft | 495 kts | 285° |
| 2026-05-09 06:26 | 9.97193 | -88.02482 | 31853 ft | 495 kts | 285° |
| 2026-05-09 06:26 | 9.99046 | -88.09228 | 31859 ft | 495 kts | 285° |
| 2026-05-09 06:27 | 10.00899 | -88.15980 | 31855 ft | 496 kts | 285° |
| 2026-05-09 06:27 | 10.02750 | -88.22732 | 31849 ft | 496 kts | 285° |
| 2026-05-09 06:28 | 10.04601 | -88.29486 | 31852 ft | 496 kts | 285° |
| 2026-05-09 06:28 | 10.06491 | -88.36239 | 31851 ft | 496 kts | 288° |
| 2026-05-09 06:29 | 10.08868 | -88.42825 | 31848 ft | 496 kts | 292° |
| 2026-05-09 06:29 | 10.11433 | -88.49310 | 31852 ft | 496 kts | 292° |
| 2026-05-09 06:30 | 10.14013 | -88.55826 | 31851 ft | 497 kts | 292° |
| 2026-05-09 06:30 | 10.16586 | -88.62342 | 31850 ft | 497 kts | 292° |
| 2026-05-09 06:31 | 10.19161 | -88.68874 | 31852 ft | 497 kts | 292° |
| 2026-05-09 06:31 | 10.21734 | -88.75406 | 31848 ft | 497 kts | 292° |
| 2026-05-09 06:32 | 10.24289 | -88.81900 | 31848 ft | 497 kts | 292° |
| 2026-05-09 06:33 | 10.28141 | -88.91697 | 31853 ft | 497 kts | 292° |
| 2026-05-09 06:33 | 10.30707 | -88.98230 | 31852 ft | 497 kts | 292° |
| 2026-05-09 06:34 | 10.34540 | -89.07995 | 31848 ft | 497 kts | 292° |
| 2026-05-09 06:34 | 10.37106 | -89.14537 | 31849 ft | 498 kts | 292° |
| 2026-05-09 06:35 | 10.39673 | -89.21088 | 31848 ft | 498 kts | 292° |
| 2026-05-09 06:35 | 10.42224 | -89.27602 | 31854 ft | 498 kts | 292° |
| 2026-05-09 06:36 | 10.44789 | -89.34154 | 31852 ft | 498 kts | 292° |
| 2026-05-09 06:36 | 10.47351 | -89.40705 | 31853 ft | 498 kts | 292° |
| 2026-05-09 06:37 | 10.49900 | -89.47227 | 31850 ft | 498 kts | 292° |
| 2026-05-09 06:37 | 10.52457 | -89.53776 | 31850 ft | 498 kts | 292° |
| 2026-05-09 06:38 | 10.55021 | -89.60344 | 31852 ft | 498 kts | 292° |
| 2026-05-09 06:38 | 10.57579 | -89.66903 | 31849 ft | 498 kts | 291° |
| 2026-05-09 06:39 | 10.60119 | -89.73420 | 31848 ft | 498 kts | 291° |
| 2026-05-09 06:39 | 10.62675 | -89.79981 | 31848 ft | 498 kts | 291° |
| 2026-05-09 06:40 | 10.65226 | -89.86536 | 31850 ft | 498 kts | 291° |
| 2026-05-09 06:40 | 10.67775 | -89.93090 | 31850 ft | 498 kts | 291° |
| 2026-05-09 06:41 | 10.70310 | -89.99613 | 31848 ft | 498 kts | 291° |
| 2026-05-09 06:41 | 10.72866 | -90.06192 | 31848 ft | 498 kts | 291° |
| 2026-05-09 06:42 | 10.75412 | -90.12752 | 31850 ft | 498 kts | 291° |
| 2026-05-09 06:42 | 10.77963 | -90.19331 | 31845 ft | 498 kts | 291° |
| 2026-05-09 06:43 | 10.80495 | -90.25864 | 31854 ft | 498 kts | 291° |
| 2026-05-09 06:43 | 10.83041 | -90.32437 | 31850 ft | 498 kts | 291° |
| 2026-05-09 06:44 | 10.85583 | -90.39006 | 31847 ft | 498 kts | 291° |
| 2026-05-09 06:44 | 10.88109 | -90.45537 | 31849 ft | 498 kts | 291° |
| 2026-05-09 06:45 | 10.90649 | -90.52109 | 31847 ft | 498 kts | 291° |